sensor_id;sensor_type;location;lat;lon;timestamp;pressure;altitude;pressure_sealevel;temperature;humidity
11880;BME280;5999;43.256;27.816;2022-08-11T00:01:11;99947.13;;;19.62;100.00
11880;BME280;5999;43.256;27.816;2022-08-11T00:03:46;99952.63;;;19.70;100.00
11880;BME280;5999;43.256;27.816;2022-08-11T00:06:15;99940.97;;;19.71;100.00
11880;BME280;5999;43.256;27.816;2022-08-11T00:08:49;99946.84;;;19.65;100.00
11880;BME280;5999;43.256;27.816;2022-08-11T00:11:17;99955.56;;;19.67;100.00
11880;BME280;5999;43.256;27.816;2022-08-11T00:13:46;99953.03;;;19.65;100.00
11880;BME280;5999;43.256;27.816;2022-08-11T00:16:16;99946.84;;;19.65;100.00
11880;BME280;5999;43.256;27.816;2022-08-11T00:18:47;99940.06;;;19.61;100.00
11880;BME280;5999;43.256;27.816;2022-08-11T00:21:15;99951.66;;;19.71;100.00
11880;BME280;5999;43.256;27.816;2022-08-11T00:23:46;99940.78;;;19.63;100.00
11880;BME280;5999;43.256;27.816;2022-08-11T00:26:14;99935.31;;;19.64;100.00
11880;BME280;5999;43.256;27.816;2022-08-11T00:28:41;99938.66;;;19.57;100.00
11880;BME280;5999;43.256;27.816;2022-08-11T00:31:19;99941.78;;;19.62;100.00
11880;BME280;5999;43.256;27.816;2022-08-11T00:33:49;99937.41;;;19.61;100.00
11880;BME280;5999;43.256;27.816;2022-08-11T00:36:18;99935.28;;;19.55;100.00
11880;BME280;5999;43.256;27.816;2022-08-11T00:38:50;99926.00;;;19.59;100.00
11880;BME280;5999;43.256;27.816;2022-08-11T00:41:28;99925.31;;;19.57;100.00
11880;BME280;5999;43.256;27.816;2022-08-11T00:46:56;99932.19;;;19.50;100.00
11880;BME280;5999;43.256;27.816;2022-08-11T00:49:37;99924.59;;;19.55;100.00
11880;BME280;5999;43.256;27.816;2022-08-11T00:52:13;99930.53;;;19.58;100.00
11880;BME280;5999;43.256;27.816;2022-08-11T00:55:14;99940.97;;;19.71;100.00
11880;BME280;5999;43.256;27.816;2022-08-11T00:58:26;99938.66;;;19.57;100.00
11880;BME280;5999;43.256;27.816;2022-08-11T01:01:07;99939.66;;;19.56;100.00
11880;BME280;5999;43.256;27.816;2022-08-11T01:09:39;99947.91;;;19.53;100.00
11880;BME280;5999;43.256;27.816;2022-08-11T01:12:23;99950.22;;;19.67;100.00
11880;BME280;5999;43.256;27.816;2022-08-11T01:28:06;99938.78;;;19.76;100.00
11880;BME280;5999;43.256;27.816;2022-08-11T01:31:18;99941.84;;;19.72;100.00
11880;BME280;5999;43.256;27.816;2022-08-11T01:37:15;99931.41;;;19.68;100.00
11880;BME280;5999;43.256;27.816;2022-08-11T01:40:14;99933.34;;;19.66;100.00
11880;BME280;5999;43.256;27.816;2022-08-11T01:46:05;99936.16;;;19.65;100.00
11880;BME280;5999;43.256;27.816;2022-08-11T01:48:42;99931.50;;;19.57;100.00
11880;BME280;5999;43.256;27.816;2022-08-11T01:51:34;99926.00;;;19.59;100.00
11880;BME280;5999;43.256;27.816;2022-08-11T01:54:08;99907.16;;;19.51;100.00
11880;BME280;5999;43.256;27.816;2022-08-11T01:56:48;99902.69;;;19.61;100.00
11880;BME280;5999;43.256;27.816;2022-08-11T01:59:27;99906.78;;;19.65;100.00
11880;BME280;5999;43.256;27.816;2022-08-11T02:05:24;99901.84;;;19.60;100.00
11880;BME280;5999;43.256;27.816;2022-08-11T02:07:57;99895.84;;;19.68;100.00
11880;BME280;5999;43.256;27.816;2022-08-11T02:10:32;99894.25;;;19.65;100.00
11880;BME280;5999;43.256;27.816;2022-08-11T02:13:28;99895.13;;;19.66;100.00
11880;BME280;5999;43.256;27.816;2022-08-11T02:16:09;99887.31;;;19.74;100.00
11880;BME280;5999;43.256;27.816;2022-08-11T02:18:40;99891.94;;;19.72;100.00
11880;BME280;5999;43.256;27.816;2022-08-11T02:21:30;99897.81;;;19.66;100.00
11880;BME280;5999;43.256;27.816;2022-08-11T02:24:27;99898.38;;;19.70;100.00
11880;BME280;5999;43.256;27.816;2022-08-11T02:26:59;99902.16;;;19.67;100.00
11880;BME280;5999;43.256;27.816;2022-08-11T02:29:33;99901.44;;;19.65;100.00
11880;BME280;5999;43.256;27.816;2022-08-11T02:32:08;99895.34;;;19.53;100.00
11880;BME280;5999;43.256;27.816;2022-08-11T02:35:04;99912.50;;;19.51;100.00
11880;BME280;5999;43.256;27.816;2022-08-11T02:37:49;99916.41;;;19.46;100.00
11880;BME280;5999;43.256;27.816;2022-08-11T02:40:29;99917.25;;;19.47;100.00
11880;BME280;5999;43.256;27.816;2022-08-11T02:43:08;99912.78;;;19.47;100.00
11880;BME280;5999;43.256;27.816;2022-08-11T02:45:54;99915.28;;;19.39;100.00
11880;BME280;5999;43.256;27.816;2022-08-11T02:48:37;99912.50;;;19.51;100.00
11880;BME280;5999;43.256;27.816;2022-08-11T02:51:29;99925.97;;;19.39;100.00
11880;BME280;5999;43.256;27.816;2022-08-11T02:54:08;99929.34;;;19.51;100.00
11880;BME280;5999;43.256;27.816;2022-08-11T02:56:47;99933.44;;;19.45;100.00
11880;BME280;5999;43.256;27.816;2022-08-11T02:59:27;99935.66;;;19.40;100.00
11880;BME280;5999;43.256;27.816;2022-08-11T03:02:27;99938.84;;;19.34;100.00
11880;BME280;5999;43.256;27.816;2022-08-11T03:05:03;99935.78;;;19.39;100.00
11880;BME280;5999;43.256;27.816;2022-08-11T03:07:43;99939.69;;;19.35;100.00
11880;BME280;5999;43.256;27.816;2022-08-11T03:10:19;99944.47;;;19.31;100.00
11880;BME280;5999;43.256;27.816;2022-08-11T03:12:52;99950.34;;;19.25;100.00
11880;BME280;5999;43.256;27.816;2022-08-11T03:15:46;99965.81;;;19.31;100.00
11880;BME280;5999;43.256;27.816;2022-08-11T03:18:36;99958.84;;;19.40;100.00
11880;BME280;5999;43.256;27.816;2022-08-11T03:21:16;99965.19;;;19.48;100.00
11880;BME280;5999;43.256;27.816;2022-08-11T03:23:52;99972.66;;;19.55;100.00
11880;BME280;5999;43.256;27.816;2022-08-11T03:26:28;99971.25;;;19.51;100.00
11880;BME280;5999;43.256;27.816;2022-08-11T03:29:05;99976.03;;;19.57;100.00
11880;BME280;5999;43.256;27.816;2022-08-11T03:31:40;99972.41;;;19.67;100.00
11880;BME280;5999;43.256;27.816;2022-08-11T03:34:14;99968.75;;;19.59;100.00
11880;BME280;5999;43.256;27.816;2022-08-11T03:37:06;99966.94;;;19.69;100.00
11880;BME280;5999;43.256;27.816;2022-08-11T03:40:06;99968.28;;;19.75;100.00
11880;BME280;5999;43.256;27.816;2022-08-11T03:42:43;99967.63;;;19.61;100.00
11880;BME280;5999;43.256;27.816;2022-08-11T03:45:21;99976.41;;;19.73;100.00
11880;BME280;5999;43.256;27.816;2022-08-11T03:48:11;99973.41;;;19.66;100.00
11880;BME280;5999;43.256;27.816;2022-08-11T03:51:05;99968.03;;;19.78;100.00
11880;BME280;5999;43.256;27.816;2022-08-11T03:53:48;99972.06;;;19.51;100.00
11880;BME280;5999;43.256;27.816;2022-08-11T04:00:05;99970.03;;;19.64;100.00
11880;BME280;5999;43.256;27.816;2022-08-11T04:14:45;99944.88;;;19.67;100.00
11880;BME280;5999;43.256;27.816;2022-08-11T04:24:03;99949.25;;;19.68;100.00
11880;BME280;5999;43.256;27.816;2022-08-11T04:29:55;99923.25;;;19.70;100.00
11880;BME280;5999;43.256;27.816;2022-08-11T04:35:28;99922.88;;;19.75;100.00
11880;BME280;5999;43.256;27.816;2022-08-11T04:41:31;99925.28;;;19.87;100.00
11880;BME280;5999;43.256;27.816;2022-08-11T04:45:06;99918.84;;;19.90;100.00
11880;BME280;5999;43.256;27.816;2022-08-11T04:51:06;99906.03;;;19.94;100.00
11880;BME280;5999;43.256;27.816;2022-08-11T04:54:02;99915.03;;;20.12;100.00
11880;BME280;5999;43.256;27.816;2022-08-11T04:56:50;99918.00;;;20.09;100.00
11880;BME280;5999;43.256;27.816;2022-08-11T05:00:04;99917.75;;;20.32;100.00
11880;BME280;5999;43.256;27.816;2022-08-11T05:03:06;99918.59;;;20.42;100.00
11880;BME280;5999;43.256;27.816;2022-08-11T05:09:13;99909.53;;;20.92;100.00
11880;BME280;5999;43.256;27.816;2022-08-11T05:11:56;99911.75;;;21.06;100.00
11880;BME280;5999;43.256;27.816;2022-08-11T05:14:31;99902.75;;;21.35;100.00
11880;BME280;5999;43.256;27.816;2022-08-11T05:17:26;99913.47;;;21.44;100.00
11880;BME280;5999;43.256;27.816;2022-08-11T05:20:14;99912.50;;;21.63;100.00
11880;BME280;5999;43.256;27.816;2022-08-11T05:23:04;99918.31;;;21.86;100.00
11880;BME280;5999;43.256;27.816;2022-08-11T05:25:55;99914.66;;;22.05;100.00
11880;BME280;5999;43.256;27.816;2022-08-11T05:28:44;99914.13;;;22.02;100.00
11880;BME280;5999;43.256;27.816;2022-08-11T05:31:34;99928.25;;;22.40;100.00
11880;BME280;5999;43.256;27.816;2022-08-11T05:34:23;99924.19;;;22.54;100.00
11880;BME280;5999;43.256;27.816;2022-08-11T05:37:11;99935.16;;;22.42;100.00
11880;BME280;5999;43.256;27.816;2022-08-11T05:39:43;99946.91;;;22.85;100.00
11880;BME280;5999;43.256;27.816;2022-08-11T05:42:31;99936.16;;;23.03;100.00
11880;BME280;5999;43.256;27.816;2022-08-11T05:45:18;99938.16;;;23.01;100.00
11880;BME280;5999;43.256;27.816;2022-08-11T05:48:04;99943.44;;;23.11;100.00
11880;BME280;5999;43.256;27.816;2022-08-11T05:50:54;99948.38;;;23.24;100.00
11880;BME280;5999;43.256;27.816;2022-08-11T05:53:49;99938.50;;;23.67;100.00
11880;BME280;5999;43.256;27.816;2022-08-11T05:56:42;99945.97;;;23.81;100.00
11880;BME280;5999;43.256;27.816;2022-08-11T05:59:15;99955.09;;;23.97;100.00
11880;BME280;5999;43.256;27.816;2022-08-11T06:01:44;99956.28;;;24.11;100.00
11880;BME280;5999;43.256;27.816;2022-08-11T06:04:16;99960.94;;;24.59;100.00
11880;BME280;5999;43.256;27.816;2022-08-11T06:06:50;99970.03;;;24.66;100.00
11880;BME280;5999;43.256;27.816;2022-08-11T06:09:27;99969.59;;;24.20;100.00
11880;BME280;5999;43.256;27.816;2022-08-11T06:11:57;99967.34;;;24.66;100.00
11880;BME280;5999;43.256;27.816;2022-08-11T06:14:25;99977.09;;;25.00;100.00
11880;BME280;5999;43.256;27.816;2022-08-11T06:16:56;99969.16;;;25.15;100.00
11880;BME280;5999;43.256;27.816;2022-08-11T06:19:32;99989.31;;;25.52;100.00
11880;BME280;5999;43.256;27.816;2022-08-11T06:22:02;99984.75;;;25.53;100.00
11880;BME280;5999;43.256;27.816;2022-08-11T06:24:30;99983.31;;;25.34;100.00
11880;BME280;5999;43.256;27.816;2022-08-11T06:26:59;99969.31;;;25.38;100.00
11880;BME280;5999;43.256;27.816;2022-08-11T06:29:27;99981.72;;;25.48;100.00
11880;BME280;5999;43.256;27.816;2022-08-11T06:31:59;99974.72;;;25.05;100.00
11880;BME280;5999;43.256;27.816;2022-08-11T06:34:33;99969.19;;;24.82;100.00
11880;BME280;5999;43.256;27.816;2022-08-11T06:37:19;99974.91;;;24.71;100.00
11880;BME280;5999;43.256;27.816;2022-08-11T06:39:53;99972.06;;;24.73;100.00
11880;BME280;5999;43.256;27.816;2022-08-11T06:42:40;99970.34;;;25.04;100.00
11880;BME280;5999;43.256;27.816;2022-08-11T06:45:22;99959.19;;;25.40;100.00
11880;BME280;5999;43.256;27.816;2022-08-11T06:47:52;99972.38;;;26.14;100.00
11880;BME280;5999;43.256;27.816;2022-08-11T06:50:21;99963.97;;;26.09;97.63
11880;BME280;5999;43.256;27.816;2022-08-11T06:53:08;99966.53;;;26.34;95.50
11880;BME280;5999;43.256;27.816;2022-08-11T06:55:37;99977.47;;;26.63;92.43
11880;BME280;5999;43.256;27.816;2022-08-11T06:58:27;99966.69;;;27.01;87.75
11880;BME280;5999;43.256;27.816;2022-08-11T07:01:17;99978.38;;;27.32;85.65
11880;BME280;5999;43.256;27.816;2022-08-11T07:03:53;99972.91;;;26.87;83.72
11880;BME280;5999;43.256;27.816;2022-08-11T07:06:32;99980.72;;;27.50;81.67
11880;BME280;5999;43.256;27.816;2022-08-11T07:09:25;99983.34;;;27.43;79.85
11880;BME280;5999;43.256;27.816;2022-08-11T07:12:38;99988.25;;;27.99;76.91
11880;BME280;5999;43.256;27.816;2022-08-11T07:15:29;99990.19;;;28.05;76.42
11880;BME280;5999;43.256;27.816;2022-08-11T07:18:12;99991.22;;;28.19;73.53
11880;BME280;5999;43.256;27.816;2022-08-11T07:21:09;100002.69;;;28.57;72.72
11880;BME280;5999;43.256;27.816;2022-08-11T07:23:57;99992.91;;;29.06;69.28
11880;BME280;5999;43.256;27.816;2022-08-11T07:26:48;100001.41;;;29.03;69.74
11880;BME280;5999;43.256;27.816;2022-08-11T07:29:35;100005.28;;;28.65;71.21
11880;BME280;5999;43.256;27.816;2022-08-11T07:32:13;99992.56;;;28.88;70.97
11880;BME280;5999;43.256;27.816;2022-08-11T07:34:47;99997.78;;;28.89;68.42
11880;BME280;5999;43.256;27.816;2022-08-11T07:37:17;100009.69;;;29.44;66.36
11880;BME280;5999;43.256;27.816;2022-08-11T07:39:47;100011.22;;;29.25;68.10
11880;BME280;5999;43.256;27.816;2022-08-11T07:42:18;100006.19;;;29.86;66.18
11880;BME280;5999;43.256;27.816;2022-08-11T07:44:46;100002.66;;;29.92;62.02
11880;BME280;5999;43.256;27.816;2022-08-11T07:47:33;100011.22;;;29.95;62.34
11880;BME280;5999;43.256;27.816;2022-08-11T07:50:19;100011.91;;;30.04;61.57
11880;BME280;5999;43.256;27.816;2022-08-11T07:53:05;99996.69;;;30.16;59.78
11880;BME280;5999;43.256;27.816;2022-08-11T07:55:33;100011.22;;;30.50;59.65
11880;BME280;5999;43.256;27.816;2022-08-11T07:58:01;100005.94;;;30.29;59.40
11880;BME280;5999;43.256;27.816;2022-08-11T08:00:49;100000.63;;;30.07;57.38
11880;BME280;5999;43.256;27.816;2022-08-11T08:03:34;99992.78;;;29.77;57.77
11880;BME280;5999;43.256;27.816;2022-08-11T08:06:21;99992.09;;;30.17;59.01
11880;BME280;5999;43.256;27.816;2022-08-11T08:09:08;99994.53;;;29.92;53.57
11880;BME280;5999;43.256;27.816;2022-08-11T08:11:55;99983.75;;;30.25;53.50
11880;BME280;5999;43.256;27.816;2022-08-11T08:14:40;99988.84;;;30.48;54.30
11880;BME280;5999;43.256;27.816;2022-08-11T08:17:26;99987.66;;;30.97;54.21
11880;BME280;5999;43.256;27.816;2022-08-11T08:20:13;99977.22;;;31.01;53.49
11880;BME280;5999;43.256;27.816;2022-08-11T08:22:42;99979.28;;;30.59;50.38
11880;BME280;5999;43.256;27.816;2022-08-11T08:25:11;99971.34;;;30.84;50.66
11880;BME280;5999;43.256;27.816;2022-08-11T08:27:39;99979.25;;;30.39;51.80
11880;BME280;5999;43.256;27.816;2022-08-11T08:30:09;99972.94;;;30.32;50.88
11880;BME280;5999;43.256;27.816;2022-08-11T08:32:57;99982.63;;;30.68;50.33
11880;BME280;5999;43.256;27.816;2022-08-11T08:35:26;99963.00;;;30.92;50.42
11880;BME280;5999;43.256;27.816;2022-08-11T08:37:55;99987.03;;;31.15;50.32
11880;BME280;5999;43.256;27.816;2022-08-11T08:40:24;99983.00;;;31.38;47.88
11880;BME280;5999;43.256;27.816;2022-08-11T08:42:54;99989.72;;;31.55;47.41
11880;BME280;5999;43.256;27.816;2022-08-11T08:45:22;99973.38;;;31.42;47.64
11880;BME280;5999;43.256;27.816;2022-08-11T08:47:56;99981.13;;;31.38;46.51
11880;BME280;5999;43.256;27.816;2022-08-11T08:50:27;99967.75;;;31.37;46.27
11880;BME280;5999;43.256;27.816;2022-08-11T08:53:11;99972.56;;;31.28;47.25
11880;BME280;5999;43.256;27.816;2022-08-11T08:55:40;99969.00;;;31.41;47.88
11880;BME280;5999;43.256;27.816;2022-08-11T08:58:08;99960.59;;;32.08;46.96
11880;BME280;5999;43.256;27.816;2022-08-11T09:00:39;99977.81;;;32.08;46.62
11880;BME280;5999;43.256;27.816;2022-08-11T09:03:07;99960.25;;;32.36;44.37
11880;BME280;5999;43.256;27.816;2022-08-11T09:05:34;99960.78;;;33.08;44.36
11880;BME280;5999;43.256;27.816;2022-08-11T09:08:02;99963.97;;;32.73;43.89
11880;BME280;5999;43.256;27.816;2022-08-11T09:10:30;99958.16;;;32.70;43.57
11880;BME280;5999;43.256;27.816;2022-08-11T09:12:59;99961.97;;;32.62;43.26
11880;BME280;5999;43.256;27.816;2022-08-11T09:15:26;99964.31;;;32.58;43.68
11880;BME280;5999;43.256;27.816;2022-08-11T09:17:56;99965.69;;;32.36;43.92
11880;BME280;5999;43.256;27.816;2022-08-11T09:20:31;99963.06;;;32.54;43.23
11880;BME280;5999;43.256;27.816;2022-08-11T09:23:02;99958.34;;;32.93;43.38
11880;BME280;5999;43.256;27.816;2022-08-11T09:25:50;99952.16;;;33.30;41.65
11880;BME280;5999;43.256;27.816;2022-08-11T09:28:37;99957.78;;;33.53;42.24
11880;BME280;5999;43.256;27.816;2022-08-11T09:31:06;99961.06;;;33.80;42.57
11880;BME280;5999;43.256;27.816;2022-08-11T09:33:33;99971.66;;;33.52;41.90
11880;BME280;5999;43.256;27.816;2022-08-11T09:36:01;99960.56;;;33.47;41.70
11880;BME280;5999;43.256;27.816;2022-08-11T09:38:50;99965.63;;;33.68;41.35
11880;BME280;5999;43.256;27.816;2022-08-11T09:41:35;99958.63;;;33.54;41.56
11880;BME280;5999;43.256;27.816;2022-08-11T09:44:04;99963.28;;;33.47;41.10
11880;BME280;5999;43.256;27.816;2022-08-11T09:46:51;99957.53;;;33.55;41.78
11880;BME280;5999;43.256;27.816;2022-08-11T09:49:20;99963.50;;;33.70;40.57
11880;BME280;5999;43.256;27.816;2022-08-11T09:51:47;99962.53;;;34.13;40.19
11880;BME280;5999;43.256;27.816;2022-08-11T09:54:17;99966.41;;;33.87;39.89
11880;BME280;5999;43.256;27.816;2022-08-11T09:56:45;99973.03;;;33.79;40.11
11880;BME280;5999;43.256;27.816;2022-08-11T09:59:30;99961.06;;;33.80;39.89
11880;BME280;5999;43.256;27.816;2022-08-11T10:01:59;99958.34;;;34.11;39.73
11880;BME280;5999;43.256;27.816;2022-08-11T10:04:34;99957.03;;;34.44;39.84
11880;BME280;5999;43.256;27.816;2022-08-11T10:07:04;99959.41;;;34.82;39.33
11880;BME280;5999;43.256;27.816;2022-08-11T10:09:38;99969.28;;;34.95;37.95
11880;BME280;5999;43.256;27.816;2022-08-11T10:12:09;99970.47;;;34.87;38.96
11880;BME280;5999;43.256;27.816;2022-08-11T10:14:41;99952.00;;;35.06;39.48
11880;BME280;5999;43.256;27.816;2022-08-11T10:17:31;99968.31;;;34.77;38.92
11880;BME280;5999;43.256;27.816;2022-08-11T10:19:58;99966.78;;;34.39;39.21
11880;BME280;5999;43.256;27.816;2022-08-11T10:22:28;99961.31;;;34.39;38.14
11880;BME280;5999;43.256;27.816;2022-08-11T10:25:15;99970.81;;;34.37;38.66
11880;BME280;5999;43.256;27.816;2022-08-11T10:28:03;99962.00;;;34.77;37.62
11880;BME280;5999;43.256;27.816;2022-08-11T10:30:33;99959.97;;;34.96;37.46
11880;BME280;5999;43.256;27.816;2022-08-11T10:33:19;99966.31;;;35.20;37.36
11880;BME280;5999;43.256;27.816;2022-08-11T10:36:06;99969.19;;;34.48;37.93
11880;BME280;5999;43.256;27.816;2022-08-11T10:38:33;99976.03;;;34.69;37.87
11880;BME280;5999;43.256;27.816;2022-08-11T10:41:01;99979.75;;;34.86;38.44
11880;BME280;5999;43.256;27.816;2022-08-11T10:43:46;99970.59;;;35.39;37.94
11880;BME280;5999;43.256;27.816;2022-08-11T10:46:15;99977.72;;;35.40;37.35
11880;BME280;5999;43.256;27.816;2022-08-11T10:49:01;99970.47;;;35.70;37.23
11880;BME280;5999;43.256;27.816;2022-08-11T10:51:29;99963.56;;;35.55;37.12
11880;BME280;5999;43.256;27.816;2022-08-11T10:54:16;99973.13;;;35.29;36.88
11880;BME280;5999;43.256;27.816;2022-08-11T10:57:02;99971.69;;;35.15;36.94
11880;BME280;5999;43.256;27.816;2022-08-11T10:59:47;99970.38;;;35.29;37.44
11880;BME280;5999;43.256;27.816;2022-08-11T11:02:16;99967.75;;;35.11;36.91
11880;BME280;5999;43.256;27.816;2022-08-11T11:04:57;99961.97;;;35.71;36.66
11880;BME280;5999;43.256;27.816;2022-08-11T11:07:34;99956.06;;;34.80;37.48
11880;BME280;5999;43.256;27.816;2022-08-11T11:10:04;99958.56;;;34.93;36.46
11880;BME280;5999;43.256;27.816;2022-08-11T11:12:40;99958.09;;;34.96;37.13
11880;BME280;5999;43.256;27.816;2022-08-11T11:15:28;99957.13;;;35.14;37.02
11880;BME280;5999;43.256;27.816;2022-08-11T11:18:20;99952.13;;;35.35;36.26
11880;BME280;5999;43.256;27.816;2022-08-11T11:20:52;99952.47;;;35.62;36.61
11880;BME280;5999;43.256;27.816;2022-08-11T11:23:22;99961.28;;;35.64;35.79
11880;BME280;5999;43.256;27.816;2022-08-11T11:26:05;99950.94;;;35.66;35.65
11880;BME280;5999;43.256;27.816;2022-08-11T11:31:49;99965.03;;;35.87;35.81
11880;BME280;5999;43.256;27.816;2022-08-11T11:34:33;99958.50;;;36.16;35.14
11880;BME280;5999;43.256;27.816;2022-08-11T11:37:05;99952.41;;;35.86;35.30
11880;BME280;5999;43.256;27.816;2022-08-11T11:39:33;99961.06;;;35.30;35.41
11880;BME280;5999;43.256;27.816;2022-08-11T11:42:04;99955.03;;;35.92;35.06
11880;BME280;5999;43.256;27.816;2022-08-11T11:44:32;99957.69;;;36.33;34.63
11880;BME280;5999;43.256;27.816;2022-08-11T11:47:00;99949.66;;;35.33;35.85
11880;BME280;5999;43.256;27.816;2022-08-11T11:49:29;99952.13;;;35.99;35.71
11880;BME280;5999;43.256;27.816;2022-08-11T11:51:58;99948.88;;;36.02;34.58
11880;BME280;5999;43.256;27.816;2022-08-11T11:54:26;99944.78;;;35.88;34.54
11880;BME280;5999;43.256;27.816;2022-08-11T11:56:55;99947.72;;;35.98;33.86
11880;BME280;5999;43.256;27.816;2022-08-11T11:59:24;99945.25;;;36.42;33.95
11880;BME280;5999;43.256;27.816;2022-08-11T12:02:13;99952.44;;;36.60;34.51
11880;BME280;5999;43.256;27.816;2022-08-11T12:04:44;99949.13;;;36.75;33.85
11880;BME280;5999;43.256;27.816;2022-08-11T12:07:14;99942.28;;;36.60;34.99
11880;BME280;5999;43.256;27.816;2022-08-11T12:10:00;99944.53;;;36.64;34.31
11880;BME280;5999;43.256;27.816;2022-08-11T12:12:27;99941.47;;;36.77;34.09
11880;BME280;5999;43.256;27.816;2022-08-11T12:15:12;99946.13;;;36.93;33.85
11880;BME280;5999;43.256;27.816;2022-08-11T12:17:39;99952.56;;;37.04;33.84
11880;BME280;5999;43.256;27.816;2022-08-11T12:20:08;99940.47;;;37.17;33.90
11880;BME280;5999;43.256;27.816;2022-08-11T12:22:35;99951.28;;;36.73;33.73
11880;BME280;5999;43.256;27.816;2022-08-11T12:25:21;99950.72;;;36.71;33.27
11880;BME280;5999;43.256;27.816;2022-08-11T12:28:06;99950.09;;;36.52;34.58
11880;BME280;5999;43.256;27.816;2022-08-11T12:30:33;99948.69;;;36.83;34.48
11880;BME280;5999;43.256;27.816;2022-08-11T12:33:00;99956.34;;;36.81;34.42
11880;BME280;5999;43.256;27.816;2022-08-11T12:35:30;99956.94;;;37.17;33.42
11880;BME280;5999;43.256;27.816;2022-08-11T12:37:57;99951.84;;;37.09;32.84
11880;BME280;5999;43.256;27.816;2022-08-11T12:40:27;99948.69;;;37.17;33.01
11880;BME280;5999;43.256;27.816;2022-08-11T12:43:16;99965.34;;;36.31;33.64
11880;BME280;5999;43.256;27.816;2022-08-11T12:46:05;99969.91;;;36.71;34.03
11880;BME280;5999;43.256;27.816;2022-08-11T12:48:35;99958.94;;;36.71;33.39
11880;BME280;5999;43.256;27.816;2022-08-11T12:51:24;99951.97;;;36.51;33.32
11880;BME280;5999;43.256;27.816;2022-08-11T12:54:13;99950.28;;;36.79;34.29
11880;BME280;5999;43.256;27.816;2022-08-11T12:56:44;99958.88;;;36.37;33.52
11880;BME280;5999;43.256;27.816;2022-08-11T12:59:30;99963.13;;;35.87;34.24
11880;BME280;5999;43.256;27.816;2022-08-11T13:02:17;99951.03;;;36.29;34.35
11880;BME280;5999;43.256;27.816;2022-08-11T13:05:04;99953.78;;;36.00;35.00
11880;BME280;5999;43.256;27.816;2022-08-11T13:07:33;99948.00;;;36.13;34.88
11880;BME280;5999;43.256;27.816;2022-08-11T13:10:03;99946.34;;;36.12;34.23
11880;BME280;5999;43.256;27.816;2022-08-11T13:12:32;99947.09;;;36.53;34.56
11880;BME280;5999;43.256;27.816;2022-08-11T13:15:16;99946.72;;;36.04;35.56
11880;BME280;5999;43.256;27.816;2022-08-11T13:17:43;99941.06;;;36.23;35.62
11880;BME280;5999;43.256;27.816;2022-08-11T13:20:13;99949.66;;;36.43;34.42
11880;BME280;5999;43.256;27.816;2022-08-11T13:22:43;99951.78;;;35.95;35.34
11880;BME280;5999;43.256;27.816;2022-08-11T13:25:11;99945.66;;;36.05;35.47
11880;BME280;5999;43.256;27.816;2022-08-11T13:27:40;99938.28;;;36.51;34.67
11880;BME280;5999;43.256;27.816;2022-08-11T13:30:07;99931.94;;;36.17;36.07
11880;BME280;5999;43.256;27.816;2022-08-11T13:32:53;99939.19;;;36.11;35.65
11880;BME280;5999;43.256;27.816;2022-08-11T13:35:22;99933.47;;;36.13;35.29
11880;BME280;5999;43.256;27.816;2022-08-11T13:37:50;99951.97;;;36.06;34.90
11880;BME280;5999;43.256;27.816;2022-08-11T13:40:19;99930.09;;;35.65;34.79
11880;BME280;5999;43.256;27.816;2022-08-11T13:42:48;99941.63;;;35.96;35.43
11880;BME280;5999;43.256;27.816;2022-08-11T13:45:15;99935.25;;;35.26;35.93
11880;BME280;5999;43.256;27.816;2022-08-11T13:47:43;99933.69;;;34.83;36.30
11880;BME280;5999;43.256;27.816;2022-08-11T13:50:13;99939.91;;;34.90;36.23
11880;BME280;5999;43.256;27.816;2022-08-11T13:52:41;99940.81;;;34.00;37.52
11880;BME280;5999;43.256;27.816;2022-08-11T13:55:11;99938.88;;;33.89;37.62
11880;BME280;5999;43.256;27.816;2022-08-11T13:57:48;99944.94;;;33.17;39.04
11880;BME280;5999;43.256;27.816;2022-08-11T14:00:16;99943.25;;;33.16;38.48
11880;BME280;5999;43.256;27.816;2022-08-11T14:02:47;99947.75;;;33.03;39.86
11880;BME280;5999;43.256;27.816;2022-08-11T14:05:17;99950.84;;;33.32;39.36
11880;BME280;5999;43.256;27.816;2022-08-11T14:07:48;99945.13;;;32.72;40.08
11880;BME280;5999;43.256;27.816;2022-08-11T14:10:18;99951.72;;;33.08;39.66
11880;BME280;5999;43.256;27.816;2022-08-11T14:12:51;99948.59;;;33.48;38.92
11880;BME280;5999;43.256;27.816;2022-08-11T14:15:41;99943.78;;;32.81;39.51
11880;BME280;5999;43.256;27.816;2022-08-11T14:18:16;99950.41;;;33.35;39.76
11880;BME280;5999;43.256;27.816;2022-08-11T14:20:46;99937.53;;;33.79;39.53
11880;BME280;5999;43.256;27.816;2022-08-11T14:23:36;99943.53;;;34.00;39.01
11880;BME280;5999;43.256;27.816;2022-08-11T14:26:06;99938.41;;;33.92;39.42
11880;BME280;5999;43.256;27.816;2022-08-11T14:28:53;99946.28;;;34.00;38.93
11880;BME280;5999;43.256;27.816;2022-08-11T14:31:23;99947.69;;;33.91;39.04
11880;BME280;5999;43.256;27.816;2022-08-11T14:33:52;99952.06;;;33.36;39.41
11880;BME280;5999;43.256;27.816;2022-08-11T14:36:21;99944.81;;;33.05;39.67
11880;BME280;5999;43.256;27.816;2022-08-11T14:38:50;99944.13;;;33.35;39.33
11880;BME280;5999;43.256;27.816;2022-08-11T14:41:20;99963.84;;;33.37;39.39
11880;BME280;5999;43.256;27.816;2022-08-11T14:44:08;99956.22;;;32.95;40.05
11880;BME280;5999;43.256;27.816;2022-08-11T14:46:55;99949.69;;;32.78;39.75
11880;BME280;5999;43.256;27.816;2022-08-11T14:49:33;99956.47;;;32.69;40.02
11880;BME280;5999;43.256;27.816;2022-08-11T14:52:03;99960.03;;;32.37;41.00
11880;BME280;5999;43.256;27.816;2022-08-11T14:54:32;99957.94;;;32.01;41.79
11880;BME280;5999;43.256;27.816;2022-08-11T14:57:20;99949.78;;;31.94;41.85
11880;BME280;5999;43.256;27.816;2022-08-11T14:59:49;99953.16;;;31.90;42.83
11880;BME280;5999;43.256;27.816;2022-08-11T15:02:17;99945.66;;;31.78;41.84
11880;BME280;5999;43.256;27.816;2022-08-11T15:05:04;99950.72;;;31.68;42.29